createdAt,value
2022-12-31T00:01:06.615Z,11.90
2022-12-31T00:03:33.226Z,11.80
2022-12-31T00:05:59.716Z,11.90
2022-12-31T00:08:26.229Z,11.90
2022-12-31T00:10:52.699Z,11.90
2022-12-31T00:13:19.230Z,11.90
2022-12-31T00:15:45.790Z,11.90
2022-12-31T00:18:12.541Z,11.90
2022-12-31T00:20:40.756Z,12.00
2022-12-31T00:23:07.681Z,12.10
2022-12-31T00:25:34.952Z,12.10
2022-12-31T00:28:01.586Z,12.20
2022-12-31T00:30:28.010Z,12.20
2022-12-31T00:32:54.555Z,12.30
2022-12-31T00:35:21.016Z,12.30
2022-12-31T00:37:47.499Z,12.30
2022-12-31T00:40:14.403Z,12.30
2022-12-31T00:42:40.985Z,12.30
2022-12-31T00:45:07.777Z,12.40
2022-12-31T00:47:34.414Z,12.40
2022-12-31T00:50:00.912Z,12.50
2022-12-31T00:52:27.400Z,12.50
2022-12-31T00:54:53.916Z,12.60
2022-12-31T00:57:20.338Z,12.60
2022-12-31T00:59:46.786Z,12.60
2022-12-31T01:02:13.433Z,12.70
2022-12-31T01:04:40.093Z,12.70
2022-12-31T01:07:06.558Z,12.70
2022-12-31T01:09:33.097Z,12.80
2022-12-31T01:11:59.621Z,12.80
2022-12-31T01:14:26.405Z,12.90
2022-12-31T01:16:53.987Z,12.90
2022-12-31T01:19:21.842Z,12.90
2022-12-31T01:21:49.439Z,13.00
2022-12-31T01:24:16.470Z,13.00
2022-12-31T01:26:43.291Z,13.10
2022-12-31T01:29:10.369Z,13.10
2022-12-31T01:31:37.353Z,13.20
2022-12-31T01:34:04.157Z,13.20
2022-12-31T01:36:31.981Z,13.20
2022-12-31T01:38:59.535Z,13.20
2022-12-31T01:41:28.349Z,13.20
2022-12-31T01:43:58.559Z,13.20
2022-12-31T01:46:31.091Z,13.20
2022-12-31T01:49:00.148Z,13.20
2022-12-31T01:51:27.556Z,13.20
2022-12-31T01:53:54.470Z,13.30
2022-12-31T01:56:22.197Z,13.30
2022-12-31T01:58:50.020Z,13.30
2022-12-31T02:01:21.293Z,13.30
2022-12-31T02:03:47.915Z,13.40
2022-12-31T02:06:17.026Z,13.40
2022-12-31T02:08:44.121Z,13.40
2022-12-31T02:11:28.211Z,13.50
2022-12-31T02:13:58.796Z,13.50
2022-12-31T02:16:28.200Z,13.50
2022-12-31T02:18:57.786Z,13.50
2022-12-31T02:21:46.829Z,13.60
2022-12-31T02:24:28.520Z,13.60
2022-12-31T02:27:04.009Z,13.70
2022-12-31T02:29:33.311Z,13.70
2022-12-31T02:31:59.739Z,13.80
2022-12-31T02:34:31.020Z,13.90
2022-12-31T02:36:58.575Z,13.90
2022-12-31T02:39:25.328Z,14.00
2022-12-31T02:41:52.299Z,14.00
2022-12-31T02:44:24.191Z,14.00
2022-12-31T02:46:55.450Z,14.00
2022-12-31T02:49:31.022Z,14.00
2022-12-31T02:52:00.497Z,14.10
2022-12-31T02:54:33.871Z,14.10
2022-12-31T02:57:17.331Z,14.10
2022-12-31T03:00:20.511Z,14.20
2022-12-31T03:02:48.069Z,14.20
2022-12-31T03:05:15.505Z,14.20
2022-12-31T03:07:43.554Z,14.20
2022-12-31T03:10:10.370Z,14.20
2022-12-31T03:12:46.715Z,14.20
2022-12-31T03:15:20.865Z,14.20
2022-12-31T03:17:50.559Z,14.20
2022-12-31T03:20:35.993Z,14.20
2022-12-31T03:23:04.373Z,14.20
2022-12-31T03:25:40.144Z,14.20
2022-12-31T03:28:14.361Z,14.30
2022-12-31T03:30:42.887Z,14.30
2022-12-31T03:33:09.423Z,14.30
2022-12-31T03:35:37.083Z,14.30
2022-12-31T03:38:04.037Z,14.30
2022-12-31T03:40:31.976Z,14.30
2022-12-31T03:42:58.454Z,14.30
2022-12-31T03:45:25.006Z,14.40
2022-12-31T03:47:51.509Z,14.40
2022-12-31T03:50:18.699Z,14.40
2022-12-31T03:52:45.330Z,14.40
2022-12-31T03:55:12.190Z,14.40
2022-12-31T03:57:38.879Z,14.40
2022-12-31T04:00:39.287Z,14.40
2022-12-31T04:03:05.936Z,14.40
2022-12-31T04:05:33.518Z,14.40
2022-12-31T04:08:00.093Z,14.40
2022-12-31T04:10:26.567Z,14.40
2022-12-31T04:12:53.089Z,14.40
2022-12-31T04:15:20.394Z,14.40
2022-12-31T04:17:47.352Z,14.40
2022-12-31T04:20:14.368Z,14.40
2022-12-31T04:22:41.404Z,14.40
2022-12-31T04:25:11.221Z,14.40
2022-12-31T04:27:38.841Z,14.40
2022-12-31T04:30:05.943Z,14.40
2022-12-31T04:32:32.480Z,14.50
2022-12-31T04:34:58.924Z,14.50
2022-12-31T04:37:25.427Z,14.40
2022-12-31T04:39:51.925Z,14.40
2022-12-31T04:42:18.406Z,14.30
2022-12-31T04:44:44.894Z,14.40
2022-12-31T04:47:11.561Z,14.40
2022-12-31T04:49:38.127Z,14.40
2022-12-31T04:52:04.760Z,14.50
2022-12-31T04:54:31.239Z,14.50
2022-12-31T04:56:57.784Z,14.50
2022-12-31T04:59:24.278Z,14.60
2022-12-31T05:01:50.917Z,14.60
2022-12-31T05:04:17.499Z,14.60
2022-12-31T05:06:44.046Z,14.60
2022-12-31T05:09:10.595Z,14.60
2022-12-31T05:11:38.211Z,14.70
2022-12-31T05:14:04.680Z,14.70
2022-12-31T05:16:31.206Z,14.70
2022-12-31T05:18:57.714Z,14.70
2022-12-31T05:21:24.279Z,14.70
2022-12-31T05:23:50.763Z,14.80
2022-12-31T05:26:17.573Z,14.70
2022-12-31T05:28:44.195Z,14.70
2022-12-31T05:31:10.858Z,14.80
2022-12-31T05:33:37.524Z,14.80
2022-12-31T05:36:04.119Z,14.70
2022-12-31T05:38:30.571Z,14.80
2022-12-31T05:41:01.312Z,14.80
2022-12-31T05:43:27.998Z,14.90
2022-12-31T05:45:54.549Z,14.90
2022-12-31T05:48:21.127Z,14.90
2022-12-31T05:50:48.333Z,15.00
2022-12-31T05:53:15.046Z,15.00
2022-12-31T05:55:41.479Z,15.00
2022-12-31T05:58:07.948Z,15.00
2022-12-31T06:00:34.394Z,15.00
2022-12-31T06:03:00.972Z,15.10
2022-12-31T06:05:27.491Z,15.10
2022-12-31T06:07:53.994Z,15.10
2022-12-31T06:10:20.424Z,15.20
2022-12-31T06:12:46.948Z,15.10
2022-12-31T06:15:13.428Z,15.10
2022-12-31T06:17:39.912Z,15.20
2022-12-31T06:20:12.521Z,15.20
2022-12-31T06:22:39.751Z,15.20
2022-12-31T06:25:06.445Z,15.20
2022-12-31T06:27:32.958Z,15.20
2022-12-31T06:29:59.542Z,15.20
2022-12-31T06:32:25.988Z,15.20
2022-12-31T06:34:52.745Z,15.20
2022-12-31T06:37:19.194Z,15.20
2022-12-31T06:39:45.660Z,15.20
2022-12-31T06:42:12.143Z,15.20
2022-12-31T06:44:38.696Z,15.20
2022-12-31T06:47:05.302Z,15.20
2022-12-31T06:49:31.753Z,15.20
2022-12-31T06:51:58.307Z,15.20
2022-12-31T06:54:24.869Z,15.20
2022-12-31T06:56:51.663Z,15.20
2022-12-31T06:59:26.198Z,15.20
2022-12-31T07:02:03.620Z,15.30
2022-12-31T07:04:42.467Z,15.30
2022-12-31T07:07:26.160Z,15.30
2022-12-31T07:09:53.043Z,15.30
2022-12-31T07:12:28.141Z,15.30
2022-12-31T07:14:59.213Z,15.30
2022-12-31T07:17:31.782Z,15.30
2022-12-31T07:20:12.371Z,15.30
2022-12-31T07:22:39.015Z,15.30
2022-12-31T07:25:06.557Z,15.30
2022-12-31T07:27:51.714Z,15.30
2022-12-31T07:30:22.685Z,15.30
2022-12-31T07:33:02.565Z,15.40
2022-12-31T07:35:35.677Z,15.30
2022-12-31T07:38:04.888Z,15.30
2022-12-31T07:40:31.315Z,15.40
2022-12-31T07:43:03.313Z,15.40
2022-12-31T07:45:43.844Z,15.40
2022-12-31T07:48:24.338Z,15.40
2022-12-31T07:50:51.661Z,15.40
2022-12-31T07:53:18.271Z,15.50
2022-12-31T07:55:44.726Z,15.50
2022-12-31T07:58:19.078Z,15.50
2022-12-31T08:00:45.886Z,15.50
2022-12-31T08:03:12.428Z,15.50
2022-12-31T08:05:46.088Z,15.50
2022-12-31T08:08:23.690Z,15.50
2022-12-31T08:11:01.935Z,15.50
2022-12-31T08:13:29.062Z,15.50
2022-12-31T08:15:56.047Z,15.50
2022-12-31T08:18:22.759Z,15.50
2022-12-31T08:20:49.323Z,15.50
2022-12-31T08:23:21.646Z,15.50
2022-12-31T08:25:57.267Z,15.50
2022-12-31T08:28:23.701Z,15.50
2022-12-31T08:31:01.892Z,15.50
2022-12-31T08:33:28.437Z,15.50
2022-12-31T08:36:03.947Z,15.50
2022-12-31T08:38:56.657Z,15.40
2022-12-31T08:41:27.990Z,15.40
2022-12-31T08:44:03.344Z,15.40
2022-12-31T08:46:37.551Z,15.50
2022-12-31T08:49:04.420Z,15.40
2022-12-31T08:51:30.928Z,15.40
2022-12-31T08:53:57.480Z,15.40
2022-12-31T08:56:27.756Z,15.40
2022-12-31T08:59:13.149Z,15.40
2022-12-31T09:01:58.561Z,15.40
2022-12-31T09:04:31.190Z,15.50
2022-12-31T09:07:02.151Z,15.40
2022-12-31T09:09:39.909Z,15.50
2022-12-31T09:12:11.948Z,15.50
2022-12-31T09:14:43.182Z,15.50
2022-12-31T09:17:28.510Z,15.50
2022-12-31T09:19:55.255Z,15.50
2022-12-31T09:22:21.879Z,15.50
2022-12-31T09:24:48.507Z,15.60
2022-12-31T09:27:33.624Z,15.60
2022-12-31T09:30:03.756Z,15.70
2022-12-31T09:32:48.987Z,15.80
2022-12-31T09:35:21.907Z,15.90
2022-12-31T09:37:49.898Z,15.90
2022-12-31T09:40:28.407Z,16.00
2022-12-31T09:43:01.567Z,16.10
2022-12-31T09:45:37.261Z,16.10
2022-12-31T09:48:06.683Z,16.20
2022-12-31T09:50:39.324Z,16.30
2022-12-31T09:53:18.924Z,16.40
2022-12-31T09:55:48.354Z,16.60
2022-12-31T09:58:29.918Z,16.90
2022-12-31T10:01:07.140Z,17.20
2022-12-31T10:03:42.713Z,17.40
2022-12-31T10:06:25.658Z,17.70
2022-12-31T10:09:10.792Z,18.40
2022-12-31T10:11:56.088Z,18.90
2022-12-31T10:14:26.092Z,19.10
2022-12-31T10:16:59.221Z,19.30
2022-12-31T10:19:31.523Z,19.30
2022-12-31T10:22:02.257Z,19.30
2022-12-31T10:24:53.382Z,19.50
2022-12-31T10:27:27.249Z,19.50
2022-12-31T10:30:14.991Z,19.40
2022-12-31T10:33:00.476Z,19.30
2022-12-31T10:35:43.993Z,19.30
2022-12-31T10:38:13.332Z,19.20
2022-12-31T10:40:58.693Z,19.00
2022-12-31T10:43:35.368Z,18.80
2022-12-31T10:46:07.965Z,19.00
2022-12-31T10:48:37.527Z,19.40
2022-12-31T10:51:23.445Z,20.40
2022-12-31T10:54:09.234Z,21.00
2022-12-31T10:56:46.849Z,20.80
2022-12-31T10:59:28.253Z,20.50
2022-12-31T11:02:13.378Z,20.00
2022-12-31T11:04:40.014Z,19.70
2022-12-31T11:07:12.429Z,19.40
2022-12-31T11:09:57.692Z,18.90
2022-12-31T11:12:42.736Z,18.80
2022-12-31T11:15:30.085Z,18.30
2022-12-31T11:17:59.408Z,17.90
2022-12-31T11:20:41.180Z,17.80
2022-12-31T11:23:07.630Z,17.50
2022-12-31T11:25:40.813Z,17.30
2022-12-31T11:28:45.913Z,17.20
2022-12-31T11:31:13.209Z,17.10
2022-12-31T11:33:50.137Z,17.20
2022-12-31T11:36:28.477Z,17.20
2022-12-31T11:39:15.192Z,17.40
2022-12-31T11:41:41.607Z,17.70
2022-12-31T11:44:18.096Z,17.80
2022-12-31T11:46:44.632Z,18.00
2022-12-31T11:49:28.105Z,17.90
2022-12-31T11:52:16.075Z,17.90
2022-12-31T11:54:46.103Z,17.90
2022-12-31T11:57:15.649Z,18.00
2022-12-31T11:59:42.239Z,17.80
2022-12-31T12:02:21.066Z,17.70
2022-12-31T12:04:48.617Z,17.60
2022-12-31T12:07:15.761Z,17.50
2022-12-31T12:09:43.719Z,17.60
2022-12-31T12:12:10.829Z,17.60
2022-12-31T12:14:38.681Z,17.60
2022-12-31T12:17:09.328Z,17.60
2022-12-31T12:19:41.435Z,17.70
2022-12-31T12:22:12.423Z,17.70
2022-12-31T12:24:39.149Z,17.70
2022-12-31T12:27:20.270Z,17.70
2022-12-31T12:29:47.347Z,17.70
2022-12-31T12:32:15.976Z,17.80
2022-12-31T12:34:49.177Z,17.80
2022-12-31T12:37:31.271Z,17.90
2022-12-31T12:40:01.689Z,17.80
2022-12-31T12:42:28.656Z,17.80
2022-12-31T12:45:04.722Z,17.90
2022-12-31T12:47:31.295Z,17.90
2022-12-31T12:49:58.337Z,17.90
2022-12-31T12:52:35.849Z,17.90
2022-12-31T12:55:16.718Z,17.80
2022-12-31T12:57:51.094Z,17.80
2022-12-31T13:00:21.949Z,17.70
2022-12-31T13:02:48.789Z,17.70
2022-12-31T13:05:28.050Z,17.70
2022-12-31T13:08:08.099Z,17.70
2022-12-31T13:10:49.070Z,17.60
2022-12-31T13:13:24.189Z,17.50
2022-12-31T13:16:11.031Z,17.60
2022-12-31T13:18:56.193Z,17.60
2022-12-31T13:21:22.645Z,17.60
2022-12-31T13:24:07.873Z,17.50
2022-12-31T13:26:38.040Z,17.50
2022-12-31T13:29:05.756Z,17.50
2022-12-31T13:31:37.463Z,17.50
2022-12-31T13:34:30.138Z,17.50
2022-12-31T13:36:58.809Z,17.50
2022-12-31T13:39:26.983Z,17.40
2022-12-31T13:42:16.505Z,17.40
2022-12-31T13:44:55.417Z,17.40
2022-12-31T13:47:29.676Z,17.50
2022-12-31T13:50:02.516Z,17.60
2022-12-31T13:52:32.812Z,17.50
2022-12-31T13:55:11.477Z,17.60
2022-12-31T13:57:50.516Z,17.50
2022-12-31T14:00:24.441Z,17.40
2022-12-31T14:02:54.999Z,17.40
2022-12-31T14:05:27.197Z,17.30
2022-12-31T14:07:54.580Z,17.20
2022-12-31T14:10:29.427Z,17.20
2022-12-31T14:12:55.912Z,17.10
2022-12-31T14:15:37.106Z,17.10
2022-12-31T14:18:09.629Z,17.00
2022-12-31T14:20:46.704Z,17.00
2022-12-31T14:23:42.686Z,17.00
2022-12-31T14:26:29.608Z,17.00
2022-12-31T14:29:06.933Z,16.90
2022-12-31T14:31:55.924Z,16.90
2022-12-31T14:34:25.500Z,16.80
2022-12-31T14:37:11.030Z,16.80
2022-12-31T14:39:43.823Z,16.70
2022-12-31T14:42:30.603Z,16.70
2022-12-31T14:45:00.082Z,16.70
2022-12-31T14:47:50.055Z,16.60
2022-12-31T14:50:26.696Z,16.60
2022-12-31T14:52:53.324Z,16.60
2022-12-31T14:55:24.629Z,16.50
2022-12-31T15:00:51.382Z,16.40
2022-12-31T15:03:18.041Z,16.40
2022-12-31T15:06:09.093Z,16.40
2022-12-31T15:08:42.630Z,16.30
2022-12-31T15:11:15.113Z,16.30
2022-12-31T15:14:13.328Z,16.30
2022-12-31T15:16:58.436Z,16.20
2022-12-31T15:19:24.894Z,16.20
2022-12-31T15:22:10.129Z,16.10
2022-12-31T15:24:43.144Z,16.10
2022-12-31T15:27:20.888Z,16.10
2022-12-31T15:29:47.374Z,16.10
2022-12-31T15:32:22.482Z,16.00
2022-12-31T15:34:59.915Z,16.00
2022-12-31T15:37:29.552Z,16.00
2022-12-31T15:40:14.838Z,16.00
2022-12-31T15:42:52.605Z,15.90
2022-12-31T15:45:48.127Z,15.90
2022-12-31T15:48:26.316Z,15.90
2022-12-31T15:50:55.348Z,15.90
2022-12-31T15:53:28.485Z,15.90
2022-12-31T15:55:56.364Z,15.80
2022-12-31T15:58:24.779Z,15.70
2022-12-31T16:01:10.219Z,15.70
2022-12-31T16:03:36.986Z,15.70
2022-12-31T16:06:07.931Z,15.60
2022-12-31T16:08:34.916Z,15.60
2022-12-31T16:11:03.264Z,15.50
2022-12-31T16:13:30.265Z,15.40
2022-12-31T16:16:05.246Z,15.40
2022-12-31T16:18:41.599Z,15.30
2022-12-31T16:21:26.552Z,15.30
2022-12-31T16:23:54.225Z,15.30
2022-12-31T16:26:21.568Z,15.30
2022-12-31T16:28:48.727Z,15.20
2022-12-31T16:31:16.804Z,15.20
2022-12-31T16:33:43.901Z,15.20
2022-12-31T16:36:36.636Z,15.10
2022-12-31T16:39:21.626Z,15.20
2022-12-31T16:41:48.112Z,15.20
2022-12-31T16:44:27.900Z,15.20
2022-12-31T16:46:59.078Z,15.20
2022-12-31T16:49:27.136Z,15.20
2022-12-31T16:51:56.063Z,15.20
2022-12-31T16:54:29.021Z,15.30
2022-12-31T16:56:56.299Z,15.20
2022-12-31T16:59:33.355Z,15.20
2022-12-31T17:02:03.146Z,15.30
2022-12-31T17:04:29.830Z,15.30
2022-12-31T17:07:16.273Z,15.30
2022-12-31T17:09:42.743Z,15.30
2022-12-31T17:12:15.709Z,15.20
2022-12-31T17:14:49.680Z,15.20
2022-12-31T17:17:25.367Z,15.10
2022-12-31T17:19:56.531Z,15.10
2022-12-31T17:22:35.905Z,15.00
2022-12-31T17:25:05.213Z,15.00
2022-12-31T17:27:32.250Z,15.00
2022-12-31T17:30:19.311Z,14.90
2022-12-31T17:32:47.223Z,14.90
2022-12-31T17:35:32.729Z,14.90
2022-12-31T17:38:17.525Z,14.80
2022-12-31T17:40:52.454Z,14.80
2022-12-31T17:43:19.947Z,14.80
2022-12-31T17:45:47.011Z,14.80
2022-12-31T17:48:15.678Z,14.80
2022-12-31T17:50:48.361Z,14.80
2022-12-31T17:53:15.168Z,14.70
2022-12-31T17:55:42.836Z,14.70
2022-12-31T17:58:15.220Z,14.70
2022-12-31T18:00:41.830Z,14.70
2022-12-31T18:03:08.425Z,14.70
2022-12-31T18:05:35.004Z,14.60
2022-12-31T18:08:01.622Z,14.60
2022-12-31T18:10:30.117Z,14.60
2022-12-31T18:12:58.690Z,14.60
2022-12-31T18:15:25.263Z,14.50
2022-12-31T18:17:51.834Z,14.50
2022-12-31T18:20:18.287Z,14.40
2022-12-31T18:22:45.210Z,14.40
2022-12-31T18:25:23.071Z,14.40
2022-12-31T18:27:50.235Z,14.40
2022-12-31T18:30:16.832Z,14.40
2022-12-31T18:32:44.076Z,14.50
2022-12-31T18:35:40.709Z,14.50
2022-12-31T18:38:06.199Z,14.50
2022-12-31T18:40:33.862Z,14.50
2022-12-31T18:43:04.876Z,14.40
2022-12-31T18:45:31.864Z,14.50
2022-12-31T18:47:58.375Z,14.50
2022-12-31T18:50:24.935Z,14.50
2022-12-31T18:52:51.386Z,14.60
2022-12-31T18:55:21.125Z,14.60
2022-12-31T18:57:47.701Z,14.60
2022-12-31T19:00:14.485Z,14.70
2022-12-31T19:02:41.048Z,14.70
2022-12-31T19:05:30.848Z,14.70
2022-12-31T19:07:57.616Z,14.80
2022-12-31T19:10:24.982Z,14.60
2022-12-31T19:12:51.464Z,14.60
2022-12-31T19:15:25.716Z,14.60
2022-12-31T19:17:52.343Z,14.60
2022-12-31T19:20:18.800Z,14.60
2022-12-31T19:22:45.242Z,14.60
2022-12-31T19:25:19.232Z,14.60
2022-12-31T19:27:45.786Z,14.50
2022-12-31T19:30:16.894Z,14.50
2022-12-31T19:32:43.543Z,14.40
2022-12-31T19:35:13.738Z,14.40
2022-12-31T19:37:40.692Z,14.40
2022-12-31T19:40:12.160Z,14.40
2022-12-31T19:42:38.635Z,14.40
2022-12-31T19:45:05.478Z,14.40
2022-12-31T19:47:31.938Z,14.30
2022-12-31T19:49:58.425Z,14.30
2022-12-31T19:52:25.072Z,14.30
2022-12-31T19:54:51.596Z,14.30
2022-12-31T19:57:18.061Z,14.20
2022-12-31T19:59:44.543Z,14.10
2022-12-31T20:02:11.270Z,14.10
2022-12-31T20:04:37.927Z,14.10
2022-12-31T20:07:04.483Z,14.00
2022-12-31T20:09:30.956Z,13.90
2022-12-31T20:11:57.457Z,14.00
2022-12-31T20:14:23.985Z,13.90
2022-12-31T20:16:50.584Z,13.80
2022-12-31T20:19:17.828Z,13.70
2022-12-31T20:21:44.931Z,13.70
2022-12-31T20:24:11.438Z,13.60
2022-12-31T20:26:38.100Z,13.60
2022-12-31T20:29:04.690Z,13.50
2022-12-31T20:31:31.245Z,13.60
2022-12-31T20:33:57.774Z,13.40
2022-12-31T20:36:24.411Z,13.50
2022-12-31T20:38:50.930Z,13.50
2022-12-31T20:41:19.174Z,13.60
2022-12-31T20:43:46.106Z,13.70
2022-12-31T20:46:18.729Z,13.70
2022-12-31T20:48:46.098Z,13.80
2022-12-31T20:51:14.020Z,13.70
2022-12-31T20:53:40.552Z,13.70
2022-12-31T20:56:08.105Z,13.70
2022-12-31T20:58:34.644Z,13.70
2022-12-31T21:01:01.388Z,13.60
2022-12-31T21:04:03.766Z,13.60
2022-12-31T21:06:15.277Z,13.60
2022-12-31T21:08:42.061Z,13.70
2022-12-31T21:11:29.205Z,13.70
2022-12-31T21:13:56.375Z,13.70
2022-12-31T21:16:22.942Z,13.70
2022-12-31T21:18:49.540Z,13.70
2022-12-31T21:21:16.317Z,13.70
2022-12-31T21:23:42.865Z,13.70
2022-12-31T21:26:09.346Z,13.70
2022-12-31T21:28:35.921Z,13.70
2022-12-31T21:31:04.466Z,13.80
2022-12-31T21:33:31.058Z,13.80
2022-12-31T21:36:04.105Z,13.80
2022-12-31T21:38:31.115Z,13.90
2022-12-31T21:41:04.891Z,13.80
2022-12-31T21:43:31.353Z,13.80
2022-12-31T21:46:02.381Z,13.80
2022-12-31T21:48:29.055Z,13.80
2022-12-31T21:51:03.790Z,13.80
2022-12-31T21:53:36.575Z,13.70
2022-12-31T21:56:11.766Z,13.80
2022-12-31T21:58:40.074Z,13.80
2022-12-31T22:01:25.371Z,13.80
2022-12-31T22:03:52.021Z,13.70
2022-12-31T22:06:22.709Z,13.70
2022-12-31T22:08:50.543Z,13.70
2022-12-31T22:11:18.316Z,13.70
2022-12-31T22:13:45.234Z,13.70
2022-12-31T22:16:13.107Z,13.60
2022-12-31T22:18:40.994Z,13.60
2022-12-31T22:21:18.187Z,13.60
2022-12-31T22:23:45.603Z,13.50
2022-12-31T22:26:13.372Z,13.50
2022-12-31T22:28:41.018Z,13.40
2022-12-31T22:31:09.123Z,13.40
2022-12-31T22:33:35.683Z,13.40
2022-12-31T22:36:04.488Z,13.30
2022-12-31T22:38:32.069Z,13.30
2022-12-31T22:41:02.272Z,13.30
2022-12-31T22:43:30.311Z,13.30
2022-12-31T22:45:56.819Z,13.30
2022-12-31T22:48:23.286Z,13.30
2022-12-31T22:50:56.876Z,13.30
2022-12-31T22:53:23.494Z,13.40
2022-12-31T22:55:50.093Z,13.30
2022-12-31T22:58:19.619Z,13.30
2022-12-31T23:00:46.980Z,13.30
2022-12-31T23:03:13.809Z,13.30
2022-12-31T23:05:40.549Z,13.30
2022-12-31T23:08:18.758Z,13.40
2022-12-31T23:11:06.202Z,13.40
2022-12-31T23:13:56.700Z,13.40
2022-12-31T23:16:43.281Z,13.40
2022-12-31T23:19:28.506Z,13.30
2022-12-31T23:22:13.519Z,13.30
2022-12-31T23:24:40.407Z,13.30
2022-12-31T23:27:07.214Z,13.20
2022-12-31T23:29:33.846Z,13.30
2022-12-31T23:32:00.445Z,13.20
2022-12-31T23:34:26.962Z,13.20
2022-12-31T23:36:53.387Z,13.30
2022-12-31T23:39:19.934Z,13.30
2022-12-31T23:41:46.412Z,13.60
2022-12-31T23:44:13.012Z,13.50
2022-12-31T23:46:40.034Z,13.40
2022-12-31T23:49:06.697Z,13.40
2022-12-31T23:51:33.317Z,13.30
2022-12-31T23:54:00.526Z,13.40
2022-12-31T23:56:26.973Z,13.30
2022-12-31T23:58:54.735Z,13.50
